createdAt,value
2018-12-17T05:00:51.410Z,0.00
2018-12-17T05:01:51.283Z,0.00
2018-12-17T05:03:43.959Z,0.00
2018-12-17T05:04:43.832Z,0.00
2018-12-17T05:06:36.488Z,0.00
2018-12-17T05:07:36.382Z,0.00
2018-12-17T05:09:30.550Z,0.00
2018-12-17T05:10:30.445Z,0.00
2018-12-17T05:12:23.084Z,0.00
2018-12-17T05:13:22.955Z,0.00
2018-12-17T05:15:15.628Z,0.00
2018-12-17T05:16:15.521Z,0.00
2018-12-17T05:18:08.175Z,0.00
2018-12-17T05:19:08.042Z,0.00
2018-12-17T05:21:00.701Z,0.00
2018-12-17T05:22:00.589Z,0.00
2018-12-17T05:23:53.267Z,0.00
2018-12-17T05:24:53.204Z,0.00
2018-12-17T05:26:45.803Z,0.00
2018-12-17T05:27:45.688Z,0.00
2018-12-17T05:29:38.368Z,0.00
2018-12-17T05:30:38.234Z,0.00
2018-12-17T05:32:31.461Z,0.00
2018-12-17T05:33:30.788Z,0.00
2018-12-17T05:35:23.452Z,0.00
2018-12-17T05:36:23.325Z,0.00
2018-12-17T05:38:15.998Z,0.00
2018-12-17T05:39:15.869Z,0.00
2018-12-17T05:41:09.200Z,0.00
2018-12-17T05:42:08.420Z,0.00
2018-12-17T05:44:01.100Z,0.00
2018-12-17T05:45:00.971Z,0.00
2018-12-17T05:46:53.621Z,0.00
2018-12-17T05:47:53.513Z,0.00
2018-12-17T05:49:46.192Z,0.00
2018-12-17T05:50:46.060Z,0.00
2018-12-17T05:52:38.731Z,0.00
2018-12-17T05:53:38.620Z,0.00
2018-12-17T05:55:31.291Z,0.00
2018-12-17T05:56:31.156Z,0.00
2018-12-17T05:58:23.924Z,0.00
2018-12-17T05:59:28.542Z,0.00
2018-12-17T06:01:16.394Z,0.00
2018-12-17T06:02:16.275Z,0.00
2018-12-17T06:04:08.953Z,0.00
2018-12-17T06:05:08.834Z,0.00
2018-12-17T06:07:01.492Z,0.00
2018-12-17T06:08:01.477Z,0.00
2018-12-17T06:09:54.050Z,0.00
2018-12-17T06:10:53.932Z,0.00
2018-12-17T06:12:46.587Z,0.00
2018-12-17T06:13:46.476Z,0.00
2018-12-17T06:15:39.159Z,0.00
2018-12-17T06:16:39.021Z,0.00
2018-12-17T06:18:31.692Z,0.00
2018-12-17T06:19:31.564Z,0.00
2018-12-17T06:21:24.230Z,0.00
2018-12-17T06:22:24.111Z,0.00
2018-12-17T06:24:16.788Z,0.00
2018-12-17T06:25:16.664Z,0.00
2018-12-17T06:27:09.318Z,0.00
2018-12-17T06:28:09.204Z,0.00
2018-12-17T06:30:01.887Z,0.00
2018-12-17T06:31:01.752Z,0.00
2018-12-17T06:32:54.409Z,0.00
2018-12-17T06:33:54.292Z,0.00
2018-12-17T06:35:46.975Z,0.00
2018-12-17T06:36:46.840Z,0.00
2018-12-17T06:38:39.522Z,0.00
2018-12-17T06:39:39.387Z,0.00
2018-12-17T06:41:32.054Z,0.00
2018-12-17T06:42:31.931Z,0.00
2018-12-17T06:44:24.611Z,0.00
2018-12-17T06:45:24.482Z,0.00
2018-12-17T06:47:17.156Z,0.00
2018-12-17T06:48:17.533Z,0.00
2018-12-17T06:50:09.716Z,0.00
2018-12-17T06:51:09.591Z,0.00
2018-12-17T06:53:02.251Z,0.00
2018-12-17T06:54:02.136Z,0.00
2018-12-17T06:55:54.817Z,0.00
2018-12-17T06:56:54.683Z,4.00
2018-12-17T06:58:47.396Z,4.00
2018-12-17T06:59:47.255Z,4.00
2018-12-17T07:01:39.913Z,4.00
2018-12-17T07:02:39.805Z,4.00
2018-12-17T07:04:32.480Z,4.00
2018-12-17T07:05:32.353Z,8.00
2018-12-17T07:07:25.035Z,12.00
2018-12-17T07:08:24.921Z,12.00
2018-12-17T07:10:17.594Z,16.00
2018-12-17T07:11:17.465Z,16.00
2018-12-17T07:13:10.161Z,16.00
2018-12-17T07:14:10.016Z,20.00
2018-12-17T07:16:02.699Z,20.00
2018-12-17T07:17:02.565Z,20.00
2018-12-17T07:18:55.232Z,20.00
2018-12-17T07:19:55.115Z,24.00
2018-12-17T07:21:47.794Z,24.00
2018-12-17T07:22:47.667Z,24.00
2018-12-17T07:24:40.336Z,32.00
2018-12-17T07:25:40.205Z,44.00
2018-12-17T07:27:32.861Z,60.00
2018-12-17T07:28:32.748Z,56.00
2018-12-17T07:30:25.421Z,40.00
2018-12-17T07:31:25.299Z,40.00
2018-12-17T07:33:17.987Z,40.00
2018-12-17T07:34:17.836Z,44.00
2018-12-17T07:36:10.522Z,48.00
2018-12-17T07:37:10.384Z,64.00
2018-12-17T07:39:03.055Z,96.00
2018-12-17T07:40:02.933Z,120.00
2018-12-17T07:41:55.621Z,160.00
2018-12-17T07:42:55.495Z,196.00
2018-12-17T07:44:48.168Z,228.00
2018-12-17T07:45:48.046Z,232.00
2018-12-17T07:47:40.703Z,292.00
2018-12-17T07:48:40.588Z,296.00
2018-12-17T07:50:33.266Z,236.00
2018-12-17T07:51:33.132Z,208.00
2018-12-17T07:53:25.798Z,192.00
2018-12-17T07:54:25.692Z,184.00
2018-12-17T07:56:18.357Z,192.00
2018-12-17T07:57:18.223Z,212.00
2018-12-17T07:59:10.878Z,224.00
2018-12-17T08:00:10.775Z,236.00
2018-12-17T08:02:03.455Z,264.00
2018-12-17T08:03:03.321Z,284.00
2018-12-17T08:04:55.989Z,296.00
2018-12-17T08:05:55.857Z,288.00
2018-12-17T08:07:48.520Z,296.00
2018-12-17T08:08:48.405Z,296.00
2018-12-17T08:10:41.081Z,304.00
2018-12-17T08:11:40.946Z,320.00
2018-12-17T08:13:33.611Z,372.00
2018-12-17T08:14:33.493Z,380.00
2018-12-17T08:16:26.253Z,412.00
2018-12-17T08:17:26.123Z,424.00
2018-12-17T08:19:18.781Z,460.00
2018-12-17T08:20:18.672Z,500.00
2018-12-17T08:22:11.344Z,548.00
2018-12-17T08:23:11.214Z,568.00
2018-12-17T08:25:03.896Z,620.00
2018-12-17T08:26:03.758Z,616.00
2018-12-17T08:27:56.422Z,780.00
2018-12-17T08:28:56.311Z,904.00
2018-12-17T08:30:48.993Z,992.00
2018-12-17T08:31:48.860Z,1012.00
2018-12-17T08:33:41.523Z,1060.00
2018-12-17T08:34:41.408Z,1060.00
2018-12-17T08:36:34.099Z,1184.00
2018-12-17T08:37:33.953Z,1304.00
2018-12-17T08:39:26.610Z,1528.00
2018-12-17T08:40:26.502Z,1608.00
2018-12-17T08:42:19.179Z,1780.00
2018-12-17T08:43:19.047Z,1876.00
2018-12-17T08:45:11.705Z,2072.00
2018-12-17T08:46:11.588Z,2148.00
2018-12-17T08:48:04.269Z,2288.00
2018-12-17T08:49:04.135Z,2336.00
2018-12-17T08:50:56.815Z,2400.00
2018-12-17T08:51:56.766Z,2436.00
2018-12-17T08:53:49.347Z,2488.00
2018-12-17T08:54:49.225Z,2472.00
2018-12-17T08:56:41.904Z,2324.00
2018-12-17T08:57:41.775Z,2320.00
2018-12-17T08:59:34.435Z,2524.00
2018-12-17T09:00:34.315Z,2620.00
2018-12-17T09:02:26.995Z,2656.00
2018-12-17T09:03:26.863Z,2652.00
2018-12-17T09:05:19.523Z,2656.00
2018-12-17T09:06:19.413Z,2660.00
2018-12-17T09:08:12.084Z,2580.00
2018-12-17T09:09:11.956Z,2564.00
2018-12-17T09:11:04.642Z,2568.00
2018-12-17T09:12:04.506Z,2540.00
2018-12-17T09:13:57.164Z,2432.00
2018-12-17T09:14:57.051Z,2468.00
2018-12-17T09:16:49.747Z,2520.00
2018-12-17T09:17:49.596Z,2580.00
2018-12-17T09:19:42.292Z,2604.00
2018-12-17T09:20:42.147Z,2648.00
2018-12-17T09:22:34.821Z,2672.00
2018-12-17T09:23:34.697Z,2668.00
2018-12-17T09:25:27.353Z,2660.00
2018-12-17T09:26:27.240Z,2652.00
2018-12-17T09:28:19.919Z,2476.00
2018-12-17T09:29:19.791Z,2232.00
2018-12-17T09:31:12.473Z,1788.00
2018-12-17T09:32:12.341Z,1956.00
2018-12-17T09:34:05.006Z,2028.00
2018-12-17T09:35:04.893Z,2044.00
2018-12-17T09:36:57.569Z,2056.00
2018-12-17T09:37:57.442Z,1900.00
2018-12-17T09:39:50.096Z,1848.00
2018-12-17T09:40:49.984Z,1736.00
2018-12-17T09:42:42.660Z,1960.00
2018-12-17T09:43:42.528Z,2356.00
2018-12-17T09:45:35.189Z,2564.00
2018-12-17T09:46:35.079Z,2412.00
2018-12-17T09:48:27.751Z,2144.00
2018-12-17T09:49:27.622Z,2076.00
2018-12-17T09:51:20.312Z,1984.00
2018-12-17T09:52:20.170Z,1900.00
2018-12-17T09:54:12.836Z,1928.00
2018-12-17T09:55:12.722Z,1960.00
2018-12-17T09:57:05.402Z,1900.00
2018-12-17T09:58:05.281Z,1776.00
2018-12-17T09:59:57.931Z,1332.00
2018-12-17T10:00:57.818Z,1348.00
2018-12-17T10:02:50.521Z,1348.00
2018-12-17T10:03:50.392Z,1312.00
2018-12-17T10:05:43.054Z,1312.00
2018-12-17T10:06:42.940Z,1408.00
2018-12-17T10:08:35.645Z,1620.00
2018-12-17T10:09:35.494Z,1724.00
2018-12-17T10:11:28.239Z,2224.00
2018-12-17T10:12:28.123Z,2356.00
2018-12-17T10:14:20.802Z,2412.00
2018-12-17T10:15:20.675Z,2288.00
2018-12-17T10:17:13.350Z,2160.00
2018-12-17T10:18:13.226Z,2020.00
2018-12-17T10:20:05.893Z,2144.00
2018-12-17T10:21:05.782Z,1944.00
2018-12-17T10:22:58.448Z,1608.00
2018-12-17T10:23:58.317Z,1528.00
2018-12-17T10:25:50.985Z,1548.00
2018-12-17T10:26:50.867Z,1524.00
2018-12-17T10:28:43.557Z,1504.00
2018-12-17T10:29:43.426Z,1560.00
2018-12-17T10:31:36.585Z,1612.00
2018-12-17T10:32:36.474Z,1708.00
2018-12-17T10:34:29.157Z,2028.00
2018-12-17T10:35:29.026Z,2196.00
2018-12-17T10:37:21.701Z,2596.00
2018-12-17T10:38:21.575Z,2616.00
2018-12-17T10:40:14.733Z,2712.00
2018-12-17T10:41:14.614Z,2652.00
2018-12-17T10:43:07.783Z,2524.00
2018-12-17T10:44:07.653Z,2956.00
2018-12-17T10:46:00.361Z,3060.00
2018-12-17T10:47:00.208Z,2860.00
2018-12-17T10:48:53.071Z,2476.00
2018-12-17T10:49:52.756Z,2792.00
2018-12-17T10:51:45.556Z,3096.00
2018-12-17T10:52:45.447Z,3240.00
2018-12-17T10:54:38.139Z,3756.00
2018-12-17T10:55:37.995Z,4232.00
2018-12-17T10:57:30.679Z,3968.00
2018-12-17T10:58:30.551Z,3852.00
2018-12-17T11:00:23.209Z,3288.00
2018-12-17T11:01:23.098Z,3244.00
2018-12-17T11:03:15.791Z,3612.00
2018-12-17T11:04:15.656Z,3316.00
2018-12-17T11:06:08.325Z,3004.00
2018-12-17T11:07:08.209Z,2852.00
2018-12-17T11:09:00.885Z,2612.00
2018-12-17T11:10:00.762Z,2580.00
2018-12-17T11:11:53.425Z,2900.00
2018-12-17T11:12:53.306Z,3516.00
2018-12-17T11:14:45.993Z,2824.00
2018-12-17T11:15:45.863Z,2660.00
2018-12-17T11:17:38.557Z,2392.00
2018-12-17T11:18:38.419Z,1964.00
2018-12-17T11:20:31.077Z,1548.00
2018-12-17T11:21:30.968Z,1508.00
2018-12-17T11:23:23.657Z,1136.00
2018-12-17T11:24:23.533Z,1156.00
2018-12-17T11:26:16.186Z,1580.00
2018-12-17T11:27:16.076Z,1692.00
2018-12-17T11:29:08.804Z,2056.00
2018-12-17T11:30:08.619Z,2128.00
2018-12-17T11:32:01.283Z,2884.00
2018-12-17T11:33:01.168Z,3180.00
2018-12-17T11:34:53.848Z,3836.00
2018-12-17T11:35:53.722Z,4140.00
2018-12-17T11:37:46.385Z,4120.00
2018-12-17T11:38:46.273Z,4540.00
2018-12-17T11:40:38.952Z,4192.00
2018-12-17T11:41:38.821Z,4072.00
2018-12-17T11:43:31.507Z,3236.00
2018-12-17T11:44:31.370Z,3228.00
2018-12-17T11:46:24.038Z,3036.00
2018-12-17T11:47:23.922Z,2864.00
2018-12-17T11:49:16.599Z,2056.00
2018-12-17T11:50:16.472Z,2060.00
2018-12-17T11:52:09.129Z,2664.00
2018-12-17T11:53:09.021Z,3032.00
2018-12-17T11:55:01.730Z,2332.00
2018-12-17T11:56:01.606Z,1952.00
2018-12-17T11:57:54.263Z,2128.00
2018-12-17T11:58:54.149Z,2320.00
2018-12-17T12:00:53.466Z,1904.00
2018-12-17T12:01:46.700Z,1776.00
2018-12-17T12:03:39.393Z,2148.00
2018-12-17T12:04:39.254Z,2128.00
2018-12-17T12:06:31.944Z,1404.00
2018-12-17T12:07:31.812Z,1096.00
2018-12-17T12:09:25.029Z,1108.00
2018-12-17T12:10:24.876Z,1464.00
2018-12-17T12:12:17.543Z,2496.00
2018-12-17T12:13:17.432Z,2540.00
2018-12-17T12:15:10.114Z,2120.00
2018-12-17T12:16:09.979Z,1860.00
2018-12-17T12:18:02.651Z,1464.00
2018-12-17T12:19:02.541Z,1448.00
2018-12-17T12:20:55.228Z,1464.00
2018-12-17T12:21:55.095Z,1640.00
2018-12-17T12:23:47.779Z,1792.00
2018-12-17T12:24:47.654Z,1660.00
2018-12-17T12:26:40.318Z,1508.00
2018-12-17T12:27:40.203Z,1468.00
2018-12-17T12:29:32.881Z,1564.00
2018-12-17T12:30:32.755Z,1588.00
2018-12-17T12:32:25.419Z,1408.00
2018-12-17T12:33:25.307Z,1332.00
2018-12-17T12:35:18.004Z,1268.00
2018-12-17T12:36:17.854Z,1140.00
2018-12-17T12:38:10.518Z,1072.00
2018-12-17T12:39:10.405Z,940.00
2018-12-17T12:41:03.098Z,1172.00
2018-12-17T12:42:02.964Z,1244.00
2018-12-17T12:43:55.661Z,1064.00
2018-12-17T12:44:55.548Z,856.00
2018-12-17T12:46:48.224Z,732.00
2018-12-17T12:47:48.111Z,704.00
2018-12-17T12:49:40.790Z,604.00
2018-12-17T12:50:40.660Z,704.00
2018-12-17T12:52:33.326Z,668.00
2018-12-17T12:53:33.210Z,732.00
2018-12-17T12:55:25.912Z,724.00
2018-12-17T12:56:25.800Z,760.00
2018-12-17T12:58:18.445Z,592.00
2018-12-17T12:59:18.328Z,508.00
2018-12-17T13:01:11.033Z,724.00
2018-12-17T13:02:10.909Z,796.00
2018-12-17T13:04:03.577Z,684.00
2018-12-17T13:05:03.465Z,820.00
2018-12-17T13:06:56.162Z,776.00
2018-12-17T13:07:56.008Z,920.00
2018-12-17T13:09:48.707Z,1160.00
2018-12-17T13:10:48.590Z,1296.00
2018-12-17T13:12:41.249Z,1548.00
2018-12-17T13:13:41.139Z,1556.00
2018-12-17T13:15:33.878Z,2040.00
2018-12-17T13:16:33.711Z,2188.00
2018-12-17T13:18:26.431Z,1612.00
2018-12-17T13:19:26.273Z,1468.00
2018-12-17T13:21:19.043Z,792.00
2018-12-17T13:22:18.872Z,680.00
2018-12-17T13:24:11.594Z,656.00
2018-12-17T13:25:11.454Z,668.00
2018-12-17T13:27:04.146Z,648.00
2018-12-17T13:28:04.008Z,612.00
2018-12-17T13:29:56.745Z,876.00
2018-12-17T13:30:56.564Z,836.00
2018-12-17T13:32:49.256Z,812.00
2018-12-17T13:33:49.120Z,720.00
2018-12-17T13:35:41.823Z,724.00
2018-12-17T13:36:41.735Z,820.00
2018-12-17T13:38:34.413Z,872.00
2018-12-17T13:39:34.300Z,1168.00
2018-12-17T13:41:27.026Z,1268.00
2018-12-17T13:42:26.832Z,1184.00
2018-12-17T13:44:19.512Z,620.00
2018-12-17T13:45:19.396Z,620.00
2018-12-17T13:47:12.106Z,640.00
2018-12-17T13:48:11.953Z,652.00
2018-12-17T13:50:04.694Z,744.00
2018-12-17T13:51:04.577Z,864.00
2018-12-17T13:52:57.250Z,1040.00
2018-12-17T13:53:57.099Z,1012.00
2018-12-17T13:55:49.800Z,788.00
2018-12-17T13:56:49.724Z,852.00
2018-12-17T13:58:42.393Z,1044.00
2018-12-17T13:59:42.254Z,1100.00
2018-12-17T14:01:35.005Z,956.00
2018-12-17T14:02:34.807Z,884.00
2018-12-17T14:04:27.625Z,828.00
2018-12-17T14:05:27.363Z,800.00
2018-12-17T14:07:20.040Z,696.00
2018-12-17T14:08:19.906Z,604.00
2018-12-17T14:10:12.579Z,520.00
2018-12-17T14:11:12.456Z,532.00
2018-12-17T14:13:05.144Z,496.00
2018-12-17T14:14:05.007Z,540.00
2018-12-17T14:15:57.703Z,520.00
2018-12-17T14:16:57.566Z,580.00
2018-12-17T14:18:50.238Z,624.00
2018-12-17T14:19:50.125Z,648.00
2018-12-17T14:21:42.804Z,680.00
2018-12-17T14:22:42.678Z,604.00
2018-12-17T14:24:35.337Z,576.00
2018-12-17T14:25:35.230Z,696.00
2018-12-17T14:27:27.912Z,456.00
2018-12-17T14:28:27.783Z,392.00
2018-12-17T14:30:20.444Z,484.00
2018-12-17T14:31:20.332Z,432.00
2018-12-17T14:33:13.010Z,472.00
2018-12-17T14:34:12.886Z,456.00
2018-12-17T14:36:05.548Z,400.00
2018-12-17T14:37:05.429Z,312.00
2018-12-17T14:38:58.110Z,268.00
2018-12-17T14:39:57.983Z,292.00
2018-12-17T14:41:50.670Z,340.00
2018-12-17T14:42:50.543Z,368.00
2018-12-17T14:44:43.209Z,372.00
2018-12-17T14:45:43.101Z,340.00
2018-12-17T14:47:35.774Z,328.00
2018-12-17T14:48:35.648Z,268.00
2018-12-17T14:50:28.317Z,260.00
2018-12-17T14:51:28.198Z,292.00
2018-12-17T14:53:20.885Z,332.00
2018-12-17T14:54:20.752Z,328.00
2018-12-17T14:56:13.438Z,296.00
2018-12-17T14:57:13.313Z,256.00
2018-12-17T14:59:05.999Z,204.00
2018-12-17T15:00:05.863Z,168.00
2018-12-17T15:01:58.549Z,128.00
2018-12-17T15:02:58.417Z,116.00
2018-12-17T15:04:51.198Z,116.00
2018-12-17T15:05:50.969Z,116.00
2018-12-17T15:07:43.693Z,136.00
2018-12-17T15:08:43.591Z,144.00
2018-12-17T15:10:36.227Z,136.00
2018-12-17T15:11:36.122Z,128.00
2018-12-17T15:13:28.798Z,112.00
2018-12-17T15:14:28.666Z,96.00
2018-12-17T15:16:21.328Z,108.00
2018-12-17T15:17:21.214Z,112.00
2018-12-17T15:19:13.991Z,100.00
2018-12-17T15:20:13.767Z,80.00
2018-12-17T15:22:06.440Z,72.00
2018-12-17T15:23:06.321Z,64.00
2018-12-17T15:24:59.022Z,60.00
2018-12-17T15:25:58.865Z,40.00
2018-12-17T15:27:51.552Z,36.00
2018-12-17T15:28:51.431Z,32.00
2018-12-17T15:30:44.125Z,28.00
2018-12-17T15:31:43.962Z,24.00
2018-12-17T15:33:36.638Z,12.00
2018-12-17T15:34:36.514Z,8.00
2018-12-17T15:36:29.177Z,8.00
2018-12-17T15:37:29.060Z,8.00
2018-12-17T15:39:21.749Z,4.00
2018-12-17T15:40:22.291Z,8.00
2018-12-17T15:42:14.293Z,8.00
2018-12-17T15:43:14.173Z,4.00
2018-12-17T15:45:06.836Z,4.00
2018-12-17T15:46:06.724Z,4.00
2018-12-17T15:47:59.870Z,0.00
2018-12-17T15:48:59.313Z,0.00
2018-12-17T15:50:51.979Z,0.00
2018-12-17T15:51:51.863Z,0.00
2018-12-17T15:53:44.544Z,0.00
2018-12-17T15:54:44.536Z,0.00
2018-12-17T15:56:37.089Z,0.00
2018-12-17T15:57:36.973Z,0.00
2018-12-17T15:59:29.652Z,0.00
2018-12-17T16:00:29.531Z,0.00
2018-12-17T16:02:22.295Z,0.00
2018-12-17T16:03:22.085Z,0.00
2018-12-17T16:05:14.749Z,0.00
2018-12-17T16:06:14.620Z,0.00
2018-12-17T16:08:07.290Z,0.00
2018-12-17T16:09:07.165Z,0.00
2018-12-17T16:10:59.846Z,0.00
2018-12-17T16:11:59.727Z,0.00
2018-12-17T16:13:52.908Z,0.00
2018-12-17T16:14:52.788Z,0.00
2018-12-17T16:16:45.448Z,0.00
2018-12-17T16:17:45.334Z,0.00
2018-12-17T16:19:38.016Z,0.00
2018-12-17T16:20:37.888Z,0.00
2018-12-17T16:22:31.106Z,0.00
2018-12-17T16:23:30.645Z,16.00
2018-12-17T16:25:23.120Z,16.00
2018-12-17T16:26:22.989Z,16.00
2018-12-17T16:28:15.676Z,16.00
2018-12-17T16:29:15.543Z,16.00
2018-12-17T16:31:08.207Z,16.00
2018-12-17T16:32:08.179Z,16.00
2018-12-17T16:34:00.786Z,16.00
2018-12-17T16:35:00.657Z,16.00
2018-12-17T16:36:53.321Z,16.00
2018-12-17T16:37:53.212Z,16.00
2018-12-17T16:39:45.888Z,16.00
2018-12-17T16:40:45.762Z,16.00
2018-12-17T16:42:38.422Z,16.00
2018-12-17T16:43:38.302Z,16.00
2018-12-17T16:45:30.996Z,16.00
2018-12-17T16:46:30.856Z,16.00
2018-12-17T16:48:23.541Z,16.00
2018-12-17T16:49:23.408Z,16.00
2018-12-17T16:51:16.074Z,16.00
2018-12-17T16:52:15.962Z,16.00
2018-12-17T16:54:08.646Z,16.00
2018-12-17T16:55:08.519Z,16.00
2018-12-17T16:57:01.240Z,16.00
2018-12-17T16:58:01.118Z,16.00
2018-12-17T16:59:53.793Z,16.00
2018-12-17T17:00:53.659Z,16.00
2018-12-17T17:02:46.528Z,16.00
2018-12-17T17:03:46.411Z,16.00
2018-12-17T17:05:39.087Z,16.00
2018-12-17T17:06:38.963Z,16.00
2018-12-17T17:08:31.637Z,16.00
2018-12-17T17:09:31.511Z,16.00
2018-12-17T17:11:24.174Z,16.00
2018-12-17T17:12:24.054Z,16.00
2018-12-17T17:14:16.742Z,16.00
2018-12-17T17:15:16.636Z,16.00
2018-12-17T17:17:09.293Z,16.00
2018-12-17T17:18:09.181Z,16.00
2018-12-17T17:20:01.861Z,16.00
2018-12-17T17:21:01.731Z,16.00
2018-12-17T17:22:54.439Z,16.00
2018-12-17T17:23:54.281Z,16.00
2018-12-17T17:25:46.962Z,16.00
2018-12-17T17:26:46.828Z,16.00
2018-12-17T17:28:39.496Z,16.00
2018-12-17T17:29:39.385Z,16.00
2018-12-17T17:31:32.064Z,16.00
2018-12-17T17:32:31.956Z,16.00
2018-12-17T17:34:24.615Z,16.00
2018-12-17T17:35:24.481Z,16.00
2018-12-17T17:37:17.672Z,16.00
2018-12-17T17:38:17.555Z,16.00
2018-12-17T17:40:10.234Z,16.00
2018-12-17T17:41:10.101Z,16.00
2018-12-17T17:43:02.764Z,16.00
2018-12-17T17:44:02.653Z,16.00
2018-12-17T17:45:55.334Z,16.00
2018-12-17T17:46:55.203Z,16.00
2018-12-17T17:48:47.872Z,16.00
2018-12-17T17:49:47.758Z,16.00
2018-12-17T17:51:40.435Z,16.00
2018-12-17T17:52:40.334Z,16.00
2018-12-17T17:54:32.992Z,16.00
2018-12-17T17:55:32.869Z,16.00
2018-12-17T17:57:25.538Z,16.00
2018-12-17T17:58:25.424Z,16.00
2018-12-17T18:00:18.130Z,16.00
2018-12-17T18:01:17.981Z,16.00
2018-12-17T18:03:10.666Z,16.00
2018-12-17T18:04:10.526Z,16.00
2018-12-17T18:06:03.209Z,16.00
2018-12-17T18:07:03.067Z,12.00
2018-12-17T18:08:55.733Z,16.00
2018-12-17T18:09:55.820Z,16.00
2018-12-17T18:11:48.310Z,16.00
2018-12-17T18:12:48.187Z,16.00
2018-12-17T18:14:40.852Z,16.00
2018-12-17T18:15:41.915Z,16.00
2018-12-17T18:17:33.396Z,16.00
2018-12-17T18:18:33.270Z,16.00
2018-12-17T18:20:25.974Z,16.00
2018-12-17T18:21:25.873Z,16.00
2018-12-17T18:23:18.555Z,16.00
2018-12-17T18:24:18.437Z,16.00
2018-12-17T18:26:11.120Z,16.00
2018-12-17T18:27:10.988Z,16.00
2018-12-17T18:29:03.659Z,16.00
2018-12-17T18:30:03.606Z,16.00
2018-12-17T18:31:56.295Z,16.00
2018-12-17T18:32:56.095Z,16.00
2018-12-17T18:34:48.784Z,16.00
2018-12-17T18:35:48.672Z,16.00
2018-12-17T18:37:41.314Z,16.00
2018-12-17T18:38:41.204Z,16.00
2018-12-17T18:40:33.878Z,16.00
2018-12-17T18:41:33.746Z,16.00
2018-12-17T18:43:26.409Z,16.00
2018-12-17T18:44:26.301Z,16.00
2018-12-17T18:46:18.975Z,16.00
2018-12-17T18:47:25.441Z,16.00
2018-12-17T18:49:11.512Z,16.00
2018-12-17T18:50:11.402Z,16.00
2018-12-17T18:52:04.081Z,16.00
2018-12-17T18:53:03.951Z,16.00
2018-12-17T18:54:56.650Z,16.00
2018-12-17T18:55:56.513Z,16.00
2018-12-17T18:57:49.164Z,16.00
2018-12-17T18:58:49.041Z,16.00
2018-12-17T19:00:41.718Z,16.00
2018-12-17T19:01:41.595Z,16.00
2018-12-17T19:03:34.256Z,16.00
2018-12-17T19:04:34.148Z,16.00
2018-12-17T19:06:26.832Z,16.00
2018-12-17T19:07:26.695Z,16.00
2018-12-17T19:09:19.362Z,16.00
2018-12-17T19:10:19.254Z,16.00
2018-12-17T19:12:11.931Z,16.00
2018-12-17T19:13:11.799Z,16.00
2018-12-17T19:15:04.659Z,16.00
2018-12-17T19:16:04.357Z,16.00
2018-12-17T19:17:57.042Z,16.00
2018-12-17T19:18:56.913Z,16.00
2018-12-17T19:21:00.774Z,16.00
2018-12-17T19:22:00.651Z,16.00
2018-12-17T19:23:53.307Z,16.00
2018-12-17T19:24:53.189Z,16.00
2018-12-17T19:26:45.865Z,16.00
2018-12-17T19:27:45.736Z,16.00
2018-12-17T19:29:38.394Z,16.00
2018-12-17T19:30:38.279Z,16.00
2018-12-17T19:32:30.950Z,16.00
2018-12-17T19:33:30.827Z,16.00
2018-12-17T19:35:23.479Z,16.00
2018-12-17T19:36:23.393Z,16.00
2018-12-17T19:38:16.045Z,16.00
2018-12-17T19:39:15.922Z,16.00
2018-12-17T19:41:08.586Z,16.00
2018-12-17T19:42:08.460Z,16.00
2018-12-17T19:44:01.200Z,16.00
2018-12-17T19:45:01.036Z,16.00
2018-12-17T19:46:53.716Z,16.00
2018-12-17T19:47:53.583Z,16.00
2018-12-17T19:49:46.266Z,16.00
2018-12-17T19:50:46.156Z,16.00
2018-12-17T19:52:38.868Z,16.00
2018-12-17T19:53:38.711Z,16.00
2018-12-17T19:55:31.384Z,16.00
2018-12-17T19:56:31.274Z,16.00
2018-12-17T19:58:23.943Z,16.00
2018-12-17T19:59:23.814Z,16.00
2018-12-17T20:01:16.493Z,16.00
2018-12-17T20:02:16.378Z,16.00
2018-12-17T20:04:09.023Z,16.00
2018-12-17T20:05:08.912Z,16.00
2018-12-17T20:07:01.612Z,16.00
2018-12-17T20:08:01.464Z,16.00
2018-12-17T20:09:54.128Z,16.00
2018-12-17T20:10:54.009Z,16.00
2018-12-17T20:12:46.691Z,16.00
2018-12-17T20:13:46.565Z,16.00
2018-12-17T20:15:39.400Z,16.00
2018-12-17T20:16:39.116Z,16.00
2018-12-17T20:18:31.800Z,16.00
2018-12-17T20:19:31.669Z,16.00
2018-12-17T20:21:24.352Z,16.00
2018-12-17T20:22:24.219Z,16.00
2018-12-17T20:24:16.883Z,16.00
2018-12-17T20:25:16.778Z,16.00
2018-12-17T20:27:09.453Z,16.00
2018-12-17T20:28:09.329Z,16.00
2018-12-17T20:30:02.987Z,16.00
2018-12-17T20:31:02.877Z,16.00
2018-12-17T20:32:55.550Z,16.00
2018-12-17T20:33:55.417Z,16.00
2018-12-17T20:35:48.080Z,16.00
2018-12-17T20:36:47.961Z,16.00
2018-12-17T20:38:40.652Z,16.00
2018-12-17T20:39:41.000Z,16.00
2018-12-17T20:41:33.190Z,16.00
2018-12-17T20:42:33.078Z,16.00
2018-12-17T20:44:25.755Z,16.00
2018-12-17T20:45:25.624Z,16.00
2018-12-17T20:47:18.309Z,16.00
2018-12-17T20:48:18.188Z,16.00
2018-12-17T20:50:10.845Z,16.00
2018-12-17T20:51:10.729Z,16.00
2018-12-17T20:53:03.412Z,16.00
2018-12-17T20:54:03.274Z,16.00
2018-12-17T20:55:55.942Z,16.00
2018-12-17T20:56:55.836Z,12.00
2018-12-17T20:58:48.513Z,16.00
2018-12-17T20:59:48.423Z,16.00
2018-12-17T21:01:41.055Z,16.00
2018-12-17T21:02:40.950Z,16.00
2018-12-17T21:04:33.625Z,16.00
2018-12-17T21:05:33.492Z,16.00
2018-12-17T21:07:26.218Z,16.00
2018-12-17T21:08:26.086Z,16.00
2018-12-17T21:10:18.748Z,16.00
2018-12-17T21:11:18.640Z,16.00
2018-12-17T21:13:11.315Z,16.00
2018-12-17T21:14:11.189Z,16.00
2018-12-17T21:16:03.861Z,16.00
2018-12-17T21:17:03.755Z,16.00
2018-12-17T21:18:56.430Z,16.00
2018-12-17T21:19:56.295Z,16.00
2018-12-17T21:21:48.961Z,16.00
2018-12-17T21:22:48.851Z,16.00
2018-12-17T21:24:41.541Z,16.00
2018-12-17T21:25:41.411Z,16.00
2018-12-17T21:27:34.078Z,16.00
2018-12-17T21:28:33.967Z,16.00
2018-12-17T21:30:26.651Z,16.00
2018-12-17T21:31:26.534Z,16.00
2018-12-17T21:33:19.199Z,16.00
2018-12-17T21:34:19.068Z,16.00
2018-12-17T21:36:11.732Z,16.00
2018-12-17T21:37:11.615Z,16.00
2018-12-17T21:39:04.300Z,16.00
2018-12-17T21:40:04.171Z,16.00
2018-12-17T21:41:56.869Z,16.00
2018-12-17T21:42:56.722Z,16.00
2018-12-17T21:44:49.396Z,16.00
2018-12-17T21:45:49.269Z,16.00
2018-12-17T21:47:41.937Z,16.00
2018-12-17T21:48:41.813Z,16.00
2018-12-17T21:50:34.500Z,16.00
2018-12-17T21:51:34.370Z,16.00
2018-12-17T21:53:27.049Z,16.00
2018-12-17T21:54:26.918Z,16.00
2018-12-17T21:56:19.583Z,16.00
2018-12-17T21:57:19.469Z,16.00
2018-12-17T21:59:12.158Z,16.00
2018-12-17T22:00:12.032Z,16.00
2018-12-17T22:02:04.721Z,16.00
2018-12-17T22:03:04.571Z,16.00
2018-12-17T22:04:57.251Z,16.00
2018-12-17T22:05:57.121Z,16.00
2018-12-17T22:07:49.788Z,16.00
2018-12-17T22:08:49.666Z,16.00
2018-12-17T22:10:42.346Z,16.00
2018-12-17T22:11:42.223Z,16.00
2018-12-17T22:13:34.906Z,16.00
2018-12-17T22:14:34.775Z,16.00
2018-12-17T22:16:27.540Z,16.00
2018-12-17T22:17:27.324Z,16.00
2018-12-17T22:19:20.009Z,16.00
2018-12-17T22:20:19.926Z,16.00
2018-12-17T22:22:12.545Z,16.00
2018-12-17T22:23:12.426Z,16.00
2018-12-17T22:25:05.111Z,16.00
2018-12-17T22:26:04.983Z,16.00
2018-12-17T22:27:57.644Z,16.00
2018-12-17T22:28:57.534Z,16.00
2018-12-17T22:30:50.260Z,16.00
2018-12-17T22:31:50.129Z,16.00
2018-12-17T22:33:42.799Z,16.00
2018-12-17T22:34:42.683Z,16.00
2018-12-17T22:36:35.358Z,0.00
2018-12-17T22:37:35.231Z,0.00
2018-12-17T22:39:27.907Z,0.00
2018-12-17T22:40:27.785Z,0.00
2018-12-17T22:42:20.446Z,0.00
2018-12-17T22:43:20.334Z,0.00
2018-12-17T22:45:13.030Z,0.00
2018-12-17T22:46:12.891Z,0.00
2018-12-17T22:48:05.543Z,0.00
2018-12-17T22:49:05.430Z,0.00
2018-12-17T22:50:58.108Z,0.00
2018-12-17T22:51:57.983Z,0.00
2018-12-17T22:53:50.654Z,0.00
2018-12-17T22:54:50.532Z,0.00
2018-12-17T22:56:43.209Z,0.00
2018-12-17T22:57:43.086Z,0.00
2018-12-17T22:59:35.770Z,0.00
